createdAt,value
2018-10-06T00:03:20.171Z,3.10
2018-10-06T00:08:13.533Z,2.62
2018-10-06T00:13:06.918Z,3.02
2018-10-06T00:18:00.310Z,2.55
2018-10-06T00:22:55.656Z,2.77
2018-10-06T00:27:49.504Z,2.58
2018-10-06T00:32:44.202Z,2.60
2018-10-06T00:37:37.588Z,2.80
2018-10-06T00:42:31.454Z,2.70
2018-10-06T00:47:24.933Z,2.72
2018-10-06T00:52:18.206Z,2.80
2018-10-06T00:57:11.699Z,2.87
2018-10-06T01:02:05.073Z,3.00
2018-10-06T01:06:58.451Z,2.95
2018-10-06T01:11:51.700Z,2.60
2018-10-06T01:16:45.101Z,2.47
2018-10-06T01:21:38.882Z,2.75
2018-10-06T01:26:32.299Z,2.30
2018-10-06T01:31:26.938Z,2.98
2018-10-06T01:36:21.061Z,2.40
2018-10-06T01:41:14.650Z,2.45
2018-10-06T01:46:08.055Z,2.80
2018-10-06T01:51:02.524Z,2.67
2018-10-06T01:55:55.831Z,3.08
2018-10-06T02:00:49.625Z,2.98
2018-10-06T02:05:43.026Z,2.33
2018-10-06T02:10:36.372Z,2.62
2018-10-06T02:15:30.271Z,2.40
2018-10-06T02:20:23.625Z,2.60
2018-10-06T02:25:16.995Z,2.42
2018-10-06T02:30:11.554Z,2.50
2018-10-06T02:35:04.712Z,2.60
2018-10-06T02:39:58.310Z,2.40
2018-10-06T02:44:51.684Z,2.62
2018-10-06T02:49:45.039Z,2.58
2018-10-06T02:54:38.352Z,2.50
2018-10-06T02:59:31.844Z,2.75
2018-10-06T03:04:25.118Z,2.90
2018-10-06T03:09:18.377Z,2.85
2018-10-06T03:14:11.664Z,2.55
2018-10-06T03:19:05.102Z,2.67
2018-10-06T03:23:58.451Z,2.65
2018-10-06T03:28:51.719Z,2.50
2018-10-06T03:33:45.050Z,2.62
2018-10-06T03:38:38.387Z,3.55
2018-10-06T03:43:31.529Z,3.58
2018-10-06T03:48:24.702Z,3.33
2018-10-06T03:53:17.882Z,3.25
2018-10-06T03:58:11.260Z,3.22
2018-10-06T04:03:04.414Z,4.25
2018-10-06T04:07:57.736Z,4.03
2018-10-06T04:12:51.048Z,4.03
2018-10-06T04:17:44.262Z,5.37
2018-10-06T04:22:37.406Z,5.60
2018-10-06T04:27:30.623Z,7.67
2018-10-06T04:32:24.117Z,7.40
2018-10-06T04:37:17.629Z,6.55
2018-10-06T04:42:10.807Z,6.62
2018-10-06T04:47:04.046Z,5.65
2018-10-06T04:51:57.420Z,5.97
2018-10-06T04:56:50.801Z,6.78
2018-10-06T05:01:44.153Z,6.08
2018-10-06T05:06:37.377Z,6.50
2018-10-06T05:11:30.614Z,7.60
2018-10-06T05:16:23.856Z,6.17
2018-10-06T05:21:17.251Z,4.97
2018-10-06T05:26:10.390Z,5.78
2018-10-06T05:31:04.618Z,5.15
2018-10-06T05:35:57.863Z,4.47
2018-10-06T05:40:51.467Z,5.00
2018-10-06T05:45:44.769Z,5.47
2018-10-06T05:50:38.018Z,4.60
2018-10-06T05:55:31.225Z,3.30
2018-10-06T06:00:25.012Z,3.55
2018-10-06T06:05:18.237Z,3.40
2018-10-06T06:10:12.140Z,3.60
2018-10-06T06:15:05.693Z,3.08
2018-10-06T06:19:58.894Z,2.85
2018-10-06T06:24:52.130Z,2.58
2018-10-06T06:29:45.300Z,2.75
2018-10-06T06:34:38.650Z,3.20
2018-10-06T06:39:31.843Z,2.98
2018-10-06T06:44:25.312Z,2.70
2018-10-06T06:49:18.574Z,4.17
2018-10-06T06:54:11.831Z,2.70
2018-10-06T06:59:05.174Z,2.90
2018-10-06T07:03:58.468Z,3.00
2018-10-06T07:08:51.763Z,3.25
2018-10-06T07:13:45.165Z,3.20
2018-10-06T07:18:41.954Z,2.83
2018-10-06T07:23:35.334Z,2.70
2018-10-06T07:28:28.859Z,2.42
2018-10-06T07:33:23.767Z,2.25
2018-10-06T07:38:17.218Z,3.22
2018-10-06T07:43:10.399Z,2.65
2018-10-06T07:48:03.761Z,2.67
2018-10-06T07:52:57.326Z,3.27
2018-10-06T07:57:50.565Z,2.83
2018-10-06T08:02:46.299Z,2.62
2018-10-06T08:07:39.637Z,3.00
2018-10-06T08:12:33.034Z,2.85
2018-10-06T08:17:26.615Z,2.35
2018-10-06T08:22:19.803Z,2.20
2018-10-06T08:27:13.299Z,2.35
2018-10-06T08:32:06.942Z,2.52
2018-10-06T08:37:00.412Z,2.40
2018-10-06T08:41:53.935Z,2.77
2018-10-06T08:46:47.297Z,2.50
2018-10-06T08:51:40.552Z,2.67
2018-10-06T08:56:33.923Z,2.30
2018-10-06T09:01:27.214Z,2.70
2018-10-06T09:06:20.712Z,3.30
2018-10-06T09:11:14.211Z,2.47
2018-10-06T09:16:07.662Z,2.33
2018-10-06T09:21:00.953Z,2.45
2018-10-06T09:25:54.118Z,2.75
2018-10-06T09:30:47.496Z,2.30
2018-10-06T09:35:40.725Z,2.22
2018-10-06T09:40:34.076Z,2.42
2018-10-06T09:45:27.278Z,2.50
2018-10-06T09:50:20.563Z,2.22
2018-10-06T09:55:13.779Z,2.47
2018-10-06T10:00:07.355Z,2.55
2018-10-06T10:05:09.107Z,2.30
2018-10-06T10:10:04.752Z,2.20
2018-10-06T10:14:57.981Z,2.50
2018-10-06T10:19:51.293Z,2.50
2018-10-06T10:24:44.527Z,2.25
2018-10-06T10:29:41.537Z,2.40
2018-10-06T10:34:34.884Z,2.10
2018-10-06T10:39:28.316Z,2.50
2018-10-06T10:44:21.679Z,2.15
2018-10-06T10:49:14.822Z,2.50
2018-10-06T10:54:08.027Z,2.47
2018-10-06T10:59:01.298Z,2.77
2018-10-06T11:03:54.653Z,2.33
2018-10-06T11:08:47.758Z,2.70
2018-10-06T11:13:41.021Z,2.10
2018-10-06T11:18:34.330Z,2.40
2018-10-06T11:23:27.646Z,2.40
2018-10-06T11:28:21.072Z,2.12
2018-10-06T11:33:14.318Z,2.55
2018-10-06T11:38:07.745Z,2.45
2018-10-06T11:43:00.964Z,2.20
2018-10-06T11:47:54.122Z,2.45
2018-10-06T11:52:47.292Z,3.15
2018-10-06T11:57:40.562Z,2.00
2018-10-06T12:02:33.753Z,2.20
2018-10-06T12:07:26.976Z,2.17
2018-10-06T12:12:20.196Z,2.20
2018-10-06T12:17:13.489Z,2.25
2018-10-06T12:22:06.774Z,7.00
2018-10-06T12:27:00.034Z,1.95
2018-10-06T12:31:53.416Z,2.22
2018-10-06T12:36:46.700Z,2.12
2018-10-06T12:41:40.048Z,2.40
2018-10-06T12:46:33.215Z,2.35
2018-10-06T12:51:26.534Z,2.65
2018-10-06T12:56:20.002Z,2.65
2018-10-06T13:01:13.281Z,2.17
2018-10-06T13:06:06.565Z,2.50
2018-10-06T13:11:00.042Z,2.12
2018-10-06T13:15:53.255Z,1.92
2018-10-06T13:20:46.434Z,2.05
2018-10-06T13:25:39.622Z,2.20
2018-10-06T13:30:32.766Z,2.55
2018-10-06T13:35:25.945Z,2.20
2018-10-06T13:40:19.312Z,2.42
2018-10-06T13:45:12.868Z,2.17
2018-10-06T13:50:06.006Z,1.90
2018-10-06T13:54:59.221Z,2.37
2018-10-06T13:59:52.678Z,2.00
2018-10-06T14:04:45.804Z,2.27
2018-10-06T14:09:39.121Z,2.00
2018-10-06T14:14:32.307Z,2.20
2018-10-06T14:19:25.633Z,2.75
2018-10-06T14:24:18.875Z,2.20
2018-10-06T14:29:12.066Z,2.30
2018-10-06T14:34:05.652Z,2.00
2018-10-06T14:38:58.914Z,1.82
2018-10-06T14:43:53.346Z,1.92
2018-10-06T14:48:46.590Z,2.00
2018-10-06T14:53:39.827Z,3.12
2018-10-06T14:58:33.096Z,2.50
2018-10-06T15:03:26.300Z,2.42
2018-10-06T15:08:20.731Z,2.08
2018-10-06T15:13:13.905Z,2.45
2018-10-06T15:18:07.303Z,3.10
2018-10-06T15:23:01.202Z,2.15
2018-10-06T15:27:54.544Z,3.00
2018-10-06T15:32:47.915Z,2.37
2018-10-06T15:37:41.367Z,2.60
2018-10-06T15:42:34.574Z,2.87
2018-10-06T15:47:27.896Z,3.37
2018-10-06T15:52:21.234Z,4.12
2018-10-06T15:57:14.509Z,3.02
2018-10-06T16:02:07.666Z,3.40
2018-10-06T16:07:00.875Z,3.90
2018-10-06T16:11:54.167Z,3.45
2018-10-06T16:16:47.541Z,2.40
2018-10-06T16:21:40.942Z,2.87
2018-10-06T16:26:34.107Z,3.20
2018-10-06T16:31:27.425Z,2.87
2018-10-06T16:36:20.714Z,2.55
2018-10-06T16:41:14.055Z,3.02
2018-10-06T16:46:07.619Z,3.67
2018-10-06T16:51:01.836Z,2.30
2018-10-06T16:55:55.124Z,2.47
2018-10-06T17:00:48.402Z,2.33
2018-10-06T17:05:41.672Z,2.30
2018-10-06T17:10:34.968Z,2.22
2018-10-06T17:15:28.572Z,2.27
2018-10-06T17:20:21.967Z,2.10
2018-10-06T17:25:15.580Z,1.67
2018-10-06T17:30:08.921Z,1.72
2018-10-06T17:35:02.199Z,2.02
2018-10-06T17:39:55.547Z,2.02
2018-10-06T17:44:49.216Z,1.90
2018-10-06T17:49:42.738Z,2.20
2018-10-06T17:54:36.128Z,2.40
2018-10-06T17:59:29.950Z,4.03
2018-10-06T18:04:23.343Z,3.70
2018-10-06T18:09:16.875Z,5.95
2018-10-06T18:14:10.302Z,5.20
2018-10-06T18:19:03.622Z,4.60
2018-10-06T18:23:57.134Z,4.47
2018-10-06T18:28:51.429Z,3.58
2018-10-06T18:33:45.147Z,4.45
2018-10-06T18:38:38.464Z,4.10
2018-10-06T18:43:31.934Z,4.08
2018-10-06T18:48:25.833Z,4.75
2018-10-06T18:53:19.166Z,4.45
2018-10-06T18:58:12.755Z,3.33
2018-10-06T19:03:06.289Z,4.85
2018-10-06T19:07:59.506Z,2.72
2018-10-06T19:12:52.989Z,2.90
2018-10-06T19:17:46.239Z,2.90
2018-10-06T19:22:39.619Z,2.75
2018-10-06T19:27:32.922Z,2.35
2018-10-06T19:32:26.242Z,2.60
2018-10-06T19:37:19.493Z,4.15
2018-10-06T19:42:12.829Z,3.87
2018-10-06T19:47:06.161Z,3.67
2018-10-06T19:51:59.575Z,3.22
2018-10-06T19:56:52.723Z,2.58
2018-10-06T20:01:46.065Z,2.75
2018-10-06T20:06:39.335Z,2.37
2018-10-06T20:11:33.498Z,2.83
2018-10-06T20:16:26.884Z,3.92
2018-10-06T20:21:20.490Z,2.20
2018-10-06T20:26:14.205Z,2.22
2018-10-06T20:31:08.086Z,1.85
2018-10-06T20:36:01.748Z,1.80
2018-10-06T20:40:55.484Z,1.90
2018-10-06T20:45:51.089Z,2.12
2018-10-06T20:50:45.855Z,1.98
2018-10-06T20:55:40.330Z,2.12
2018-10-06T21:00:33.978Z,3.10
2018-10-06T21:05:27.985Z,2.75
2018-10-06T21:10:23.201Z,1.98
2018-10-06T21:15:16.427Z,2.80
2018-10-06T21:20:10.771Z,2.00
2018-10-06T21:25:04.257Z,2.10
2018-10-06T21:29:57.492Z,2.10
2018-10-06T21:34:50.817Z,1.85
2018-10-06T21:39:44.081Z,1.77
2018-10-06T21:44:37.404Z,2.08
2018-10-06T21:49:30.786Z,2.02
2018-10-06T21:54:24.000Z,2.77
2018-10-06T21:59:17.376Z,1.80
2018-10-06T22:04:10.615Z,1.80
2018-10-06T22:09:04.053Z,8.23
2018-10-06T22:13:57.327Z,2.00
2018-10-06T22:18:50.718Z,1.98
2018-10-06T22:23:44.069Z,1.85
2018-10-06T22:28:37.311Z,2.15
2018-10-06T22:33:30.642Z,2.17
2018-10-06T22:38:23.966Z,2.10
2018-10-06T22:43:17.386Z,2.10
2018-10-06T22:48:10.731Z,1.75
2018-10-06T22:53:04.095Z,1.85
2018-10-06T22:57:57.406Z,1.62
2018-10-06T23:02:50.624Z,1.80
2018-10-06T23:07:43.974Z,2.00
2018-10-06T23:12:37.296Z,1.90
2018-10-06T23:17:30.515Z,1.72
2018-10-06T23:22:24.005Z,1.52
2018-10-06T23:27:17.169Z,1.72
2018-10-06T23:32:10.310Z,2.02
2018-10-06T23:37:03.507Z,1.80
2018-10-06T23:41:56.747Z,2.02
2018-10-06T23:46:50.070Z,1.98
2018-10-06T23:51:43.423Z,2.10
2018-10-06T23:56:36.592Z,1.82
